createdAt,value
2023-05-11T00:01:05.571Z,50.49
2023-05-11T00:03:33.679Z,50.38
2023-05-11T00:06:01.887Z,50.53
2023-05-11T00:08:29.761Z,50.40
2023-05-11T00:10:57.588Z,50.51
2023-05-11T00:13:26.884Z,50.73
2023-05-11T00:15:54.729Z,50.42
2023-05-11T00:18:23.021Z,50.42
2023-05-11T00:20:51.179Z,50.72
2023-05-11T00:23:19.074Z,50.90
2023-05-11T00:25:46.999Z,50.78
2023-05-11T00:28:15.080Z,50.64
2023-05-11T00:30:45.367Z,50.80
2023-05-11T00:33:13.266Z,50.37
2023-05-11T00:35:41.711Z,50.74
2023-05-11T00:38:09.562Z,50.72
2023-05-11T00:40:37.492Z,50.87
2023-05-11T00:43:05.650Z,50.98
2023-05-11T00:45:33.842Z,50.62
2023-05-11T00:48:03.715Z,50.57
2023-05-11T00:50:32.065Z,50.81
2023-05-11T00:53:00.127Z,50.80
2023-05-11T00:55:28.977Z,50.62
2023-05-11T00:57:57.124Z,50.55
2023-05-11T01:00:25.090Z,51.00
2023-05-11T01:02:53.731Z,51.05
2023-05-11T01:05:23.578Z,50.92
2023-05-11T01:08:06.601Z,51.16
2023-05-11T01:10:42.917Z,50.92
2023-05-11T01:13:18.610Z,51.22
2023-05-11T01:15:51.743Z,51.37
2023-05-11T01:18:24.939Z,51.22
2023-05-11T01:20:57.884Z,51.23
2023-05-11T01:23:45.723Z,51.68
2023-05-11T01:26:47.623Z,51.90
2023-05-11T01:29:41.506Z,51.83
2023-05-11T01:32:18.237Z,51.86
2023-05-11T01:34:47.356Z,51.78
2023-05-11T01:37:17.708Z,52.30
2023-05-11T01:39:53.134Z,52.76
2023-05-11T01:42:26.085Z,52.87
2023-05-11T01:44:57.062Z,52.53
2023-05-11T01:47:29.459Z,53.06
2023-05-11T01:49:58.968Z,53.07
2023-05-11T01:52:28.236Z,53.18
2023-05-11T01:54:57.837Z,53.85
2023-05-11T01:57:26.858Z,53.89
2023-05-11T01:59:57.395Z,54.15
2023-05-11T02:02:28.689Z,54.28
2023-05-11T02:04:57.711Z,54.71
2023-05-11T02:07:26.032Z,54.30
2023-05-11T02:09:56.335Z,54.63
2023-05-11T02:12:26.798Z,55.02
2023-05-11T02:14:55.825Z,54.53
2023-05-11T02:17:25.503Z,54.83
2023-05-11T02:19:55.704Z,54.54
2023-05-11T02:22:25.726Z,54.29
2023-05-11T02:24:53.854Z,54.59
2023-05-11T02:27:21.837Z,54.16
2023-05-11T02:29:49.775Z,54.35
2023-05-11T02:32:21.353Z,54.53
2023-05-11T02:34:55.603Z,54.59
2023-05-11T02:37:28.343Z,55.12
2023-05-11T02:40:00.811Z,54.70
2023-05-11T02:42:32.154Z,54.90
2023-05-11T02:45:03.392Z,54.90
2023-05-11T02:47:33.690Z,55.04
2023-05-11T02:50:05.773Z,55.54
2023-05-11T02:52:37.379Z,55.35
2023-05-11T02:55:06.917Z,56.03
2023-05-11T02:57:34.965Z,55.42
2023-05-11T03:00:03.979Z,56.05
2023-05-11T03:02:32.099Z,56.22
2023-05-11T03:05:00.030Z,55.91
2023-05-11T03:07:28.174Z,56.00
2023-05-11T03:09:59.809Z,56.59
2023-05-11T03:12:31.754Z,56.51
2023-05-11T03:15:00.233Z,56.21
2023-05-11T03:17:29.759Z,55.88
2023-05-11T03:19:59.267Z,55.40
2023-05-11T03:22:28.460Z,55.40
2023-05-11T03:24:57.867Z,55.75
2023-05-11T03:27:26.796Z,55.43
2023-05-11T03:29:56.809Z,55.32
2023-05-11T03:32:25.099Z,55.51
2023-05-11T03:34:53.709Z,55.44
2023-05-11T03:37:22.621Z,55.76
2023-05-11T03:39:55.971Z,55.37
2023-05-11T03:42:27.275Z,55.30
2023-05-11T03:44:58.530Z,55.41
2023-05-11T03:47:28.267Z,55.06
2023-05-11T03:49:57.068Z,55.32
2023-05-11T03:52:25.674Z,55.26
2023-05-11T03:54:53.686Z,54.94
2023-05-11T03:57:21.721Z,55.04
2023-05-11T03:59:51.189Z,54.77
2023-05-11T04:02:19.144Z,54.48
2023-05-11T04:04:47.374Z,54.13
2023-05-11T04:07:15.350Z,54.29
2023-05-11T04:09:43.441Z,53.88
2023-05-11T04:12:11.370Z,53.70
2023-05-11T04:14:39.307Z,53.30
2023-05-11T04:17:08.552Z,53.07
2023-05-11T04:19:36.478Z,53.00
2023-05-11T04:22:04.375Z,52.69
2023-05-11T04:24:32.247Z,52.54
2023-05-11T04:27:00.252Z,52.49
2023-05-11T04:29:28.288Z,52.08
2023-05-11T04:31:56.509Z,52.06
2023-05-11T04:34:25.915Z,52.16
2023-05-11T04:36:53.822Z,51.53
2023-05-11T04:39:22.152Z,51.48
2023-05-11T04:41:50.132Z,51.34
2023-05-11T04:44:18.156Z,51.13
2023-05-11T04:46:46.034Z,50.91
2023-05-11T04:49:14.031Z,51.08
2023-05-11T04:51:43.342Z,50.72
2023-05-11T04:54:11.427Z,50.73
2023-05-11T04:56:40.848Z,50.67
2023-05-11T04:59:09.129Z,50.86
2023-05-11T05:01:37.380Z,50.39
2023-05-11T05:04:05.447Z,50.06
2023-05-11T05:06:33.921Z,50.22
2023-05-11T05:09:05.141Z,50.23
2023-05-11T05:11:33.274Z,49.93
2023-05-11T05:14:02.547Z,49.64
2023-05-11T05:16:32.445Z,49.33
2023-05-11T05:19:00.815Z,49.07
2023-05-11T05:21:28.988Z,48.84
2023-05-11T05:23:56.870Z,48.76
2023-05-11T05:26:26.341Z,48.69
2023-05-11T05:29:04.129Z,48.52
2023-05-11T05:31:40.357Z,48.28
2023-05-11T05:34:15.546Z,48.42
2023-05-11T05:36:44.520Z,48.26
2023-05-11T05:39:12.778Z,48.35
2023-05-11T05:41:43.841Z,48.10
2023-05-11T05:44:11.758Z,48.03
2023-05-11T05:46:39.776Z,47.89
2023-05-11T05:49:07.904Z,47.59
2023-05-11T05:51:36.009Z,47.40
2023-05-11T05:54:03.856Z,47.48
2023-05-11T05:56:32.157Z,47.44
2023-05-11T05:59:01.427Z,47.22
2023-05-11T06:01:29.422Z,46.93
2023-05-11T06:03:57.600Z,46.82
2023-05-11T06:06:26.082Z,46.84
2023-05-11T06:08:54.042Z,46.59
2023-05-11T06:11:22.780Z,46.30
2023-05-11T06:13:50.746Z,46.25
2023-05-11T06:16:20.080Z,45.85
2023-05-11T06:18:48.355Z,45.36
2023-05-11T06:21:16.369Z,45.66
2023-05-11T06:23:44.220Z,45.23
2023-05-11T06:26:12.335Z,45.28
2023-05-11T06:28:40.296Z,45.22
2023-05-11T06:31:08.150Z,44.74
2023-05-11T06:33:37.661Z,44.63
2023-05-11T06:36:06.482Z,44.58
2023-05-11T06:38:34.557Z,44.35
2023-05-11T06:41:02.556Z,44.34
2023-05-11T06:43:30.588Z,44.05
2023-05-11T06:45:58.620Z,44.04
2023-05-11T06:48:30.080Z,43.76
2023-05-11T06:50:59.449Z,43.79
2023-05-11T06:53:27.270Z,43.56
2023-05-11T06:55:55.918Z,43.34
2023-05-11T06:58:23.984Z,43.09
2023-05-11T07:00:52.050Z,43.04
2023-05-11T07:03:20.081Z,42.71
2023-05-11T07:05:48.050Z,42.42
2023-05-11T07:08:17.340Z,42.12
2023-05-11T07:10:45.363Z,41.91
2023-05-11T07:13:13.352Z,41.71
2023-05-11T07:15:41.601Z,41.55
2023-05-11T07:18:09.754Z,42.03
2023-05-11T07:20:37.708Z,42.16
2023-05-11T07:23:05.560Z,41.95
2023-05-11T07:25:35.021Z,40.56
2023-05-11T07:28:03.681Z,40.35
2023-05-11T07:30:31.820Z,39.05
2023-05-11T07:32:59.741Z,37.98
2023-05-11T07:35:27.707Z,37.29
2023-05-11T07:37:55.677Z,36.86
2023-05-11T07:40:23.750Z,36.05
2023-05-11T07:42:54.456Z,35.41
2023-05-11T07:45:22.378Z,34.91
2023-05-11T07:47:50.382Z,34.93
2023-05-11T07:50:19.186Z,34.81
2023-05-11T07:52:47.530Z,34.29
2023-05-11T07:55:15.467Z,33.82
2023-05-11T07:57:43.377Z,32.68
2023-05-11T08:00:14.025Z,32.91
2023-05-11T08:02:42.042Z,32.84
2023-05-11T08:05:10.458Z,32.22
2023-05-11T08:07:41.024Z,31.74
2023-05-11T08:10:10.452Z,31.23
2023-05-11T08:12:38.938Z,30.73
2023-05-11T08:15:07.457Z,30.64
2023-05-11T08:17:37.597Z,30.62
2023-05-11T08:20:07.010Z,30.54
2023-05-11T08:22:35.009Z,30.56
2023-05-11T08:25:03.872Z,29.66
2023-05-11T08:27:31.776Z,29.31
2023-05-11T08:30:02.165Z,28.53
2023-05-11T08:32:30.606Z,28.73
2023-05-11T08:35:00.238Z,28.69
2023-05-11T08:37:28.207Z,28.33
2023-05-11T08:39:56.192Z,28.27
2023-05-11T08:42:26.220Z,26.98
2023-05-11T08:44:57.057Z,27.14
2023-05-11T08:47:25.378Z,26.73
2023-05-11T08:49:54.000Z,26.89
2023-05-11T08:52:23.254Z,27.43
2023-05-11T08:54:53.097Z,27.08
2023-05-11T08:57:21.775Z,26.88
2023-05-11T08:59:50.291Z,26.78
2023-05-11T09:02:20.312Z,26.06
2023-05-11T09:04:49.296Z,25.83
2023-05-11T09:07:18.454Z,25.11
2023-05-11T09:09:48.985Z,25.32
2023-05-11T09:12:18.050Z,25.86
2023-05-11T09:14:47.179Z,26.20
2023-05-11T09:17:15.244Z,25.57
2023-05-11T09:20:00.062Z,25.40
2023-05-11T09:22:30.816Z,25.30
2023-05-11T09:25:01.826Z,24.60
2023-05-11T09:27:29.886Z,24.40
2023-05-11T09:29:58.034Z,24.39
2023-05-11T09:32:26.671Z,24.25
2023-05-11T09:34:54.664Z,24.48
2023-05-11T09:37:22.608Z,24.37
2023-05-11T09:40:25.205Z,23.61
2023-05-11T09:42:45.117Z,23.50
2023-05-11T09:45:13.132Z,23.72
2023-05-11T09:47:41.730Z,23.11
2023-05-11T09:50:18.780Z,22.97
2023-05-11T09:52:54.128Z,22.83
2023-05-11T09:55:22.215Z,22.90
2023-05-11T09:57:56.577Z,22.59
2023-05-11T10:00:26.426Z,23.15
2023-05-11T10:03:01.782Z,23.42
2023-05-11T10:05:31.876Z,23.84
2023-05-11T10:08:01.726Z,23.40
2023-05-11T10:10:33.125Z,22.88
2023-05-11T10:13:03.652Z,23.29
2023-05-11T10:15:36.705Z,22.93
2023-05-11T10:18:07.826Z,22.73
2023-05-11T10:20:36.007Z,22.31
2023-05-11T10:23:04.439Z,22.24
2023-05-11T10:25:32.513Z,22.34
2023-05-11T10:28:00.643Z,22.62
2023-05-11T10:30:30.818Z,22.79
2023-05-11T10:32:59.099Z,23.04
2023-05-11T10:35:27.745Z,22.76
2023-05-11T10:37:55.934Z,22.73
2023-05-11T10:40:23.808Z,22.02
2023-05-11T10:43:19.081Z,22.04
2023-05-11T10:45:56.312Z,21.97
2023-05-11T10:48:54.968Z,21.98
2023-05-11T10:51:47.600Z,22.86
2023-05-11T10:54:30.793Z,22.97
2023-05-11T10:57:13.302Z,22.86
2023-05-11T11:00:11.266Z,22.70
2023-05-11T11:02:40.724Z,23.54
2023-05-11T11:05:14.137Z,23.45
2023-05-11T11:08:03.874Z,23.08
2023-05-11T11:10:33.567Z,23.24
2023-05-11T11:13:03.874Z,23.09
2023-05-11T11:16:05.247Z,22.76
2023-05-11T11:18:34.878Z,22.49
2023-05-11T11:21:05.319Z,22.64
2023-05-11T11:23:49.126Z,22.70
2023-05-11T11:26:21.139Z,22.68
2023-05-11T11:29:11.727Z,22.31
2023-05-11T11:31:40.780Z,22.71
2023-05-11T11:34:37.516Z,22.66
2023-05-11T11:37:06.833Z,22.38
2023-05-11T11:39:50.162Z,22.25
2023-05-11T11:42:19.509Z,22.10
2023-05-11T11:44:48.473Z,22.03
2023-05-11T11:47:17.584Z,21.88
2023-05-11T11:49:48.726Z,22.16
2023-05-11T11:52:34.734Z,21.77
2023-05-11T11:55:05.245Z,22.05
2023-05-11T11:57:51.211Z,21.84
2023-05-11T12:00:22.820Z,21.83
2023-05-11T12:02:50.962Z,21.91
2023-05-11T12:05:22.848Z,21.99
2023-05-11T12:07:52.526Z,21.54
2023-05-11T12:10:21.972Z,21.70
2023-05-11T12:12:51.390Z,21.14
2023-05-11T12:15:26.024Z,21.18
2023-05-11T12:17:54.174Z,21.11
2023-05-11T12:20:24.053Z,21.15
2023-05-11T12:22:52.328Z,21.45
2023-05-11T12:25:22.020Z,21.03
2023-05-11T12:27:51.901Z,21.10
2023-05-11T12:30:25.540Z,20.69
2023-05-11T12:32:57.386Z,21.08
2023-05-11T12:35:29.168Z,21.22
2023-05-11T12:37:58.242Z,20.99
2023-05-11T12:40:26.290Z,21.18
2023-05-11T12:42:55.924Z,22.26
2023-05-11T12:45:25.180Z,22.18
2023-05-11T12:47:54.970Z,21.63
2023-05-11T12:50:23.927Z,21.41
2023-05-11T12:52:53.239Z,21.39
2023-05-11T12:55:31.182Z,21.29
2023-05-11T12:58:11.536Z,21.41
2023-05-11T13:00:52.132Z,21.65
2023-05-11T13:03:23.075Z,21.53
2023-05-11T13:05:51.601Z,21.85
2023-05-11T13:08:21.416Z,21.94
2023-05-11T13:10:49.225Z,22.08
2023-05-11T13:13:28.463Z,21.92
2023-05-11T13:15:56.734Z,21.71
2023-05-11T13:18:24.771Z,21.26
2023-05-11T13:21:06.212Z,20.91
2023-05-11T13:23:36.933Z,21.19
2023-05-11T13:26:04.868Z,20.77
2023-05-11T13:28:35.253Z,21.02
2023-05-11T13:31:03.240Z,21.04
2023-05-11T13:33:31.173Z,20.84
2023-05-11T13:35:59.083Z,20.35
2023-05-11T13:38:26.929Z,19.79
2023-05-11T13:40:56.430Z,19.70
2023-05-11T13:43:26.619Z,19.08
2023-05-11T13:45:54.597Z,19.67
2023-05-11T13:48:22.699Z,19.88
2023-05-11T13:50:50.807Z,19.82
2023-05-11T13:53:18.642Z,19.81
2023-05-11T13:55:47.880Z,19.18
2023-05-11T13:58:17.914Z,18.84
2023-05-11T14:00:56.671Z,18.22
2023-05-11T14:03:35.060Z,19.04
2023-05-11T14:06:04.054Z,18.60
2023-05-11T14:08:31.900Z,18.68
2023-05-11T14:11:01.149Z,19.02
2023-05-11T14:13:30.351Z,18.50
2023-05-11T14:15:58.503Z,18.88
2023-05-11T14:18:26.743Z,18.78
2023-05-11T14:20:54.771Z,18.80
2023-05-11T14:23:22.632Z,19.31
2023-05-11T14:25:50.595Z,19.51
2023-05-11T14:28:18.759Z,19.49
2023-05-11T14:30:48.303Z,19.64
2023-05-11T14:33:16.370Z,19.23
2023-05-11T14:35:44.374Z,19.64
2023-05-11T14:38:12.204Z,19.24
2023-05-11T14:40:40.271Z,19.59
2023-05-11T14:43:08.277Z,19.04
2023-05-11T14:45:37.002Z,18.94
2023-05-11T14:48:09.396Z,19.25
2023-05-11T14:50:37.369Z,19.33
2023-05-11T14:53:05.633Z,18.76
2023-05-11T14:55:33.950Z,19.28
2023-05-11T14:58:04.123Z,19.77
2023-05-11T15:00:32.951Z,19.91
2023-05-11T15:03:00.975Z,20.06
2023-05-11T15:05:30.203Z,19.90
2023-05-11T15:07:59.819Z,20.02
2023-05-11T15:10:28.131Z,19.73
2023-05-11T15:12:56.046Z,19.34
2023-05-11T15:15:26.153Z,19.44
2023-05-11T15:17:54.156Z,19.76
2023-05-11T15:20:22.091Z,19.95
2023-05-11T15:22:51.468Z,20.04
2023-05-11T15:25:19.984Z,19.96
2023-05-11T15:27:48.081Z,19.73
2023-05-11T15:30:16.216Z,19.67
2023-05-11T15:32:44.278Z,19.84
2023-05-11T15:35:12.185Z,19.65
2023-05-11T15:37:40.033Z,19.61
2023-05-11T15:40:10.781Z,19.20
2023-05-11T15:42:38.690Z,19.56
2023-05-11T15:45:07.767Z,19.61
2023-05-11T15:47:35.736Z,19.70
2023-05-11T15:50:03.619Z,19.21
2023-05-11T15:52:31.692Z,19.28
2023-05-11T15:54:59.644Z,19.11
2023-05-11T15:57:28.881Z,19.61
2023-05-11T15:59:56.770Z,19.97
2023-05-11T16:02:24.786Z,19.68
2023-05-11T16:04:52.797Z,19.73
2023-05-11T16:07:20.660Z,20.08
2023-05-11T16:09:48.805Z,20.10
2023-05-11T16:12:16.684Z,19.96
2023-05-11T16:14:45.937Z,19.92
2023-05-11T16:17:14.218Z,20.35
2023-05-11T16:19:42.163Z,20.52
2023-05-11T16:22:10.132Z,20.65
2023-05-11T16:24:38.107Z,20.80
2023-05-11T16:27:06.343Z,21.18
2023-05-11T16:29:34.480Z,21.03
2023-05-11T16:32:03.855Z,21.25
2023-05-11T16:34:32.072Z,21.24
2023-05-11T16:36:59.956Z,21.44
2023-05-11T16:39:27.907Z,21.11
2023-05-11T16:41:55.806Z,21.48
2023-05-11T16:44:23.991Z,21.54
2023-05-11T16:46:52.441Z,21.36
2023-05-11T16:49:21.775Z,21.47
2023-05-11T16:51:49.715Z,21.87
2023-05-11T16:54:17.848Z,21.93
2023-05-11T16:56:45.826Z,22.22
2023-05-11T16:59:13.685Z,22.43
2023-05-11T17:01:42.074Z,22.71
2023-05-11T17:04:10.342Z,22.95
2023-05-11T17:06:39.962Z,22.97
2023-05-11T17:09:08.022Z,23.39
2023-05-11T17:11:35.997Z,23.76
2023-05-11T17:14:04.171Z,24.04
2023-05-11T17:16:32.304Z,24.46
2023-05-11T17:19:00.394Z,24.58
2023-05-11T17:21:30.886Z,25.02
2023-05-11T17:24:00.314Z,25.10
2023-05-11T17:26:39.145Z,25.33
2023-05-11T17:29:15.142Z,25.71
2023-05-11T17:31:43.318Z,25.83
2023-05-11T17:34:11.449Z,25.89
2023-05-11T17:36:39.785Z,25.99
2023-05-11T17:39:09.916Z,26.17
2023-05-11T17:41:37.761Z,26.14
2023-05-11T17:44:06.082Z,26.40
2023-05-11T17:46:34.670Z,26.50
2023-05-11T17:49:02.904Z,26.35
2023-05-11T17:51:31.265Z,26.79
2023-05-11T17:53:59.304Z,27.11
2023-05-11T17:56:29.002Z,27.20
2023-05-11T17:58:57.023Z,27.23
2023-05-11T18:01:25.351Z,27.34
2023-05-11T18:03:53.450Z,27.44
2023-05-11T18:06:21.581Z,27.53
2023-05-11T18:08:49.628Z,27.60
2023-05-11T18:11:17.686Z,27.79
2023-05-11T18:13:47.951Z,27.73
2023-05-11T18:16:15.886Z,27.76
2023-05-11T18:18:44.912Z,27.85
2023-05-11T18:21:12.980Z,27.93
2023-05-11T18:23:40.847Z,28.17
2023-05-11T18:26:08.896Z,28.34
2023-05-11T18:28:36.818Z,28.51
2023-05-11T18:31:06.098Z,28.54
2023-05-11T18:33:33.937Z,28.52
2023-05-11T18:36:03.241Z,28.71
2023-05-11T18:38:31.308Z,28.79
2023-05-11T18:40:59.244Z,28.83
2023-05-11T18:43:27.291Z,29.09
2023-05-11T18:45:55.173Z,29.40
2023-05-11T18:48:24.814Z,29.51
2023-05-11T18:50:55.506Z,29.75
2023-05-11T18:53:23.413Z,29.70
2023-05-11T18:55:53.553Z,29.70
2023-05-11T18:58:22.299Z,29.75
2023-05-11T19:00:51.165Z,29.90
2023-05-11T19:03:21.201Z,29.99
2023-05-11T19:05:51.851Z,30.14
2023-05-11T19:08:19.709Z,30.18
2023-05-11T19:10:48.219Z,30.31
2023-05-11T19:13:16.272Z,30.56
2023-05-11T19:15:44.655Z,31.17
2023-05-11T19:18:12.671Z,31.41
2023-05-11T19:20:40.715Z,31.98
2023-05-11T19:23:09.927Z,32.54
2023-05-11T19:25:37.757Z,32.79
2023-05-11T19:28:06.304Z,33.24
2023-05-11T19:30:34.152Z,33.44
2023-05-11T19:33:02.264Z,33.80
2023-05-11T19:35:30.405Z,34.02
2023-05-11T19:37:58.378Z,34.36
2023-05-11T19:40:45.419Z,34.56
2023-05-11T19:43:14.362Z,34.58
2023-05-11T19:45:43.673Z,34.97
2023-05-11T19:48:11.563Z,35.14
2023-05-11T19:50:39.459Z,35.45
2023-05-11T19:53:07.552Z,35.72
2023-05-11T19:55:37.346Z,35.92
2023-05-11T19:58:06.883Z,36.01
2023-05-11T20:00:34.986Z,35.84
2023-05-11T20:03:05.592Z,36.08
2023-05-11T20:05:33.552Z,36.61
2023-05-11T20:08:01.856Z,36.44
2023-05-11T20:10:29.834Z,36.56
2023-05-11T20:12:59.544Z,36.93
2023-05-11T20:15:27.437Z,36.79
2023-05-11T20:17:55.419Z,37.21
2023-05-11T20:20:23.816Z,37.13
2023-05-11T20:22:52.005Z,37.20
2023-05-11T20:25:20.339Z,37.10
2023-05-11T20:27:48.340Z,37.58
2023-05-11T20:30:18.249Z,37.53
2023-05-11T20:35:17.358Z,37.90
2023-05-11T20:37:45.373Z,37.83
2023-05-11T20:40:14.155Z,38.25
2023-05-11T20:42:42.115Z,38.05
2023-05-11T20:45:11.015Z,38.01
2023-05-11T20:47:40.280Z,38.56
2023-05-11T20:50:10.085Z,38.43
2023-05-11T20:52:38.308Z,38.73
2023-05-11T20:55:07.251Z,38.59
2023-05-11T20:57:35.260Z,38.61
2023-05-11T21:00:07.440Z,38.82
2023-05-11T21:02:35.517Z,39.03
2023-05-11T21:05:04.968Z,39.52
2023-05-11T21:07:32.836Z,39.25
2023-05-11T21:10:01.744Z,39.19
2023-05-11T21:12:29.808Z,39.47
2023-05-11T21:14:57.725Z,39.82
2023-05-11T21:17:25.721Z,39.75
2023-05-11T21:19:53.709Z,39.92
2023-05-11T21:22:23.045Z,39.64
2023-05-11T21:24:50.955Z,39.70
2023-05-11T21:27:18.879Z,40.02
2023-05-11T21:29:46.695Z,39.74
2023-05-11T21:32:14.668Z,39.68
2023-05-11T21:34:42.625Z,40.10
2023-05-11T21:37:10.634Z,40.02
2023-05-11T21:39:39.818Z,40.11
2023-05-11T21:42:09.131Z,40.34
2023-05-11T21:44:36.978Z,40.68
2023-05-11T21:47:05.253Z,40.48
2023-05-11T21:49:33.254Z,40.33
2023-05-11T21:52:03.294Z,40.81
2023-05-11T21:54:31.123Z,40.78
2023-05-11T21:57:00.553Z,40.76
2023-05-11T21:59:28.405Z,40.89
2023-05-11T22:01:57.237Z,40.89
2023-05-11T22:04:25.513Z,41.20
2023-05-11T22:06:53.331Z,41.26
2023-05-11T22:09:21.267Z,40.97
2023-05-11T22:11:49.168Z,41.50
2023-05-11T22:14:18.399Z,41.68
2023-05-11T22:16:46.328Z,41.64
2023-05-11T22:19:14.439Z,41.79
2023-05-11T22:21:42.332Z,41.82
2023-05-11T22:24:10.645Z,41.82
2023-05-11T22:26:38.645Z,41.70
2023-05-11T22:29:06.665Z,42.06
2023-05-11T22:31:36.045Z,42.05
2023-05-11T22:34:04.062Z,42.10
2023-05-11T22:36:33.221Z,42.00
2023-05-11T22:39:01.056Z,42.18
2023-05-11T22:41:29.055Z,42.31
2023-05-11T22:43:56.883Z,42.30
2023-05-11T22:46:24.840Z,42.56
2023-05-11T22:48:54.212Z,42.66
2023-05-11T22:51:22.038Z,42.61
2023-05-11T22:53:49.948Z,42.84
2023-05-11T22:56:18.027Z,43.01
2023-05-11T22:58:45.863Z,43.24
2023-05-11T23:01:14.241Z,43.15
2023-05-11T23:03:42.272Z,43.37
2023-05-11T23:06:12.524Z,43.50
2023-05-11T23:08:40.468Z,43.72
2023-05-11T23:11:08.521Z,43.95
2023-05-11T23:13:36.407Z,44.08
2023-05-11T23:16:04.636Z,44.15
2023-05-11T23:18:33.194Z,44.17
2023-05-11T23:21:01.866Z,44.37
2023-05-11T23:23:31.298Z,44.49
2023-05-11T23:25:59.217Z,44.53
2023-05-11T23:28:27.081Z,44.57
2023-05-11T23:30:54.890Z,44.79
2023-05-11T23:33:22.956Z,45.01
2023-05-11T23:35:50.870Z,45.17
2023-05-11T23:38:18.889Z,45.23
2023-05-11T23:40:48.723Z,45.52
2023-05-11T23:43:16.785Z,45.51
2023-05-11T23:45:44.651Z,45.70
2023-05-11T23:48:12.710Z,45.96
2023-05-11T23:50:40.639Z,45.96
2023-05-11T23:53:08.493Z,45.96
2023-05-11T23:55:36.367Z,46.01
2023-05-11T23:58:05.585Z,46.11
